createdAt,value
2022-11-18T00:02:06.104Z,2.13
2022-11-18T00:04:51.642Z,2.33
2022-11-18T00:07:36.858Z,2.70
2022-11-18T00:10:22.232Z,2.10
2022-11-18T00:13:29.623Z,3.30
2022-11-18T00:16:14.895Z,3.53
2022-11-18T00:18:59.797Z,2.30
2022-11-18T00:21:44.991Z,3.47
2022-11-18T00:24:30.201Z,2.77
2022-11-18T00:27:15.389Z,2.50
2022-11-18T00:30:00.809Z,2.10
2022-11-18T00:32:46.062Z,2.30
2022-11-18T00:35:31.304Z,3.63
2022-11-18T00:38:16.157Z,2.80
2022-11-18T00:41:13.845Z,3.27
2022-11-18T00:43:59.122Z,2.60
2022-11-18T00:46:44.044Z,2.33
2022-11-18T00:49:29.333Z,2.73
2022-11-18T00:52:15.072Z,2.60
2022-11-18T00:55:00.260Z,2.83
2022-11-18T00:57:45.200Z,3.60
2022-11-18T01:00:30.060Z,2.33
2022-11-18T01:03:15.477Z,4.70
2022-11-18T01:06:00.626Z,2.40
2022-11-18T01:08:45.801Z,2.43
2022-11-18T01:11:49.642Z,2.20
2022-11-18T01:14:35.059Z,1.80
2022-11-18T01:17:20.172Z,1.73
2022-11-18T01:20:05.632Z,1.70
2022-11-18T01:22:50.817Z,2.77
2022-11-18T01:25:40.941Z,2.80
2022-11-18T01:28:25.853Z,2.90
2022-11-18T01:31:19.192Z,2.40
2022-11-18T01:34:04.409Z,3.67
2022-11-18T01:36:52.356Z,2.20
2022-11-18T01:39:37.953Z,1.57
2022-11-18T01:42:23.676Z,2.00
2022-11-18T01:45:14.228Z,2.57
2022-11-18T01:48:18.478Z,2.47
2022-11-18T01:51:09.328Z,2.30
2022-11-18T01:54:02.909Z,1.80
2022-11-18T01:56:52.464Z,1.93
2022-11-18T01:59:40.845Z,2.07
2022-11-18T02:02:27.096Z,2.10
2022-11-18T02:05:13.376Z,2.13
2022-11-18T02:08:01.065Z,3.67
2022-11-18T02:10:46.689Z,1.90
2022-11-18T02:13:34.734Z,2.00
2022-11-18T02:16:29.909Z,1.93
2022-11-18T02:19:48.847Z,2.40
2022-11-18T02:22:53.106Z,1.77
2022-11-18T02:25:59.959Z,2.63
2022-11-18T02:29:07.402Z,1.70
2022-11-18T02:32:00.798Z,2.13
2022-11-18T02:35:01.299Z,1.63
2022-11-18T02:37:53.068Z,2.13
2022-11-18T02:40:45.094Z,2.00
2022-11-18T02:43:38.074Z,2.00
2022-11-18T02:46:33.522Z,1.60
2022-11-18T02:49:42.016Z,1.87
2022-11-18T02:52:28.143Z,1.50
2022-11-18T02:55:15.995Z,1.80
2022-11-18T02:58:03.228Z,2.07
2022-11-18T03:00:55.514Z,1.70
2022-11-18T03:03:40.697Z,1.67
2022-11-18T03:06:33.149Z,1.93
2022-11-18T03:09:26.977Z,2.07
2022-11-18T03:12:32.036Z,1.70
2022-11-18T03:15:52.773Z,1.80
2022-11-18T03:18:53.420Z,1.80
2022-11-18T03:21:47.859Z,1.50
2022-11-18T03:24:37.501Z,1.60
2022-11-18T03:27:33.417Z,1.90
2022-11-18T03:30:22.265Z,1.60
2022-11-18T03:33:14.211Z,1.63
2022-11-18T03:36:03.959Z,1.17
2022-11-18T03:38:54.085Z,1.77
2022-11-18T03:41:46.027Z,1.73
2022-11-18T03:44:35.605Z,1.50
2022-11-18T03:47:31.910Z,1.63
2022-11-18T03:50:22.761Z,1.67
2022-11-18T03:53:10.216Z,1.60
2022-11-18T03:56:02.432Z,1.70
2022-11-18T03:59:08.506Z,1.53
2022-11-18T04:01:59.396Z,1.50
2022-11-18T04:04:49.307Z,1.53
2022-11-18T04:07:42.308Z,1.40
2022-11-18T04:10:33.343Z,1.63
2022-11-18T04:13:32.534Z,1.50
2022-11-18T04:16:17.494Z,1.50
2022-11-18T04:19:06.162Z,1.70
2022-11-18T04:21:51.961Z,1.60
2022-11-18T04:24:37.753Z,1.90
2022-11-18T04:27:23.092Z,1.80
2022-11-18T04:30:08.650Z,2.30
2022-11-18T04:32:53.756Z,2.00
2022-11-18T04:35:38.762Z,1.50
2022-11-18T04:38:24.116Z,1.40
2022-11-18T04:41:09.161Z,1.67
2022-11-18T04:43:54.687Z,1.60
2022-11-18T04:46:41.816Z,1.60
2022-11-18T04:49:28.088Z,1.50
2022-11-18T04:52:13.938Z,1.60
2022-11-18T04:54:59.035Z,1.30
2022-11-18T04:57:43.922Z,1.77
2022-11-18T05:00:28.905Z,1.60
2022-11-18T05:03:14.999Z,1.67
2022-11-18T05:06:01.913Z,1.70
2022-11-18T05:08:46.766Z,1.77
2022-11-18T05:11:51.287Z,1.20
2022-11-18T05:14:36.697Z,1.30
2022-11-18T05:17:21.880Z,1.50
2022-11-18T05:20:07.206Z,1.50
2022-11-18T05:22:52.032Z,1.70
2022-11-18T05:25:36.991Z,1.50
2022-11-18T05:28:21.962Z,1.60
2022-11-18T05:31:10.490Z,1.47
2022-11-18T05:33:56.013Z,1.70
2022-11-18T05:36:41.508Z,1.50
2022-11-18T05:39:26.708Z,1.27
2022-11-18T05:42:31.270Z,1.80
2022-11-18T05:45:16.560Z,1.50
2022-11-18T05:48:03.908Z,1.60
2022-11-18T05:50:51.772Z,1.40
2022-11-18T05:53:36.710Z,1.60
2022-11-18T05:56:28.102Z,1.40
2022-11-18T05:59:14.230Z,1.50
2022-11-18T06:02:03.821Z,1.60
2022-11-18T06:04:53.189Z,1.43
2022-11-18T06:07:42.946Z,1.43
2022-11-18T06:10:35.091Z,1.17
2022-11-18T06:13:35.801Z,1.20
2022-11-18T06:16:26.428Z,1.33
2022-11-18T06:19:11.891Z,1.50
2022-11-18T06:21:57.163Z,1.43
2022-11-18T06:24:43.552Z,1.20
2022-11-18T06:27:29.661Z,1.50
2022-11-18T06:30:15.086Z,1.40
2022-11-18T06:33:00.597Z,1.50
2022-11-18T06:35:45.904Z,1.50
2022-11-18T06:38:30.911Z,1.53
2022-11-18T06:41:15.863Z,1.20
2022-11-18T06:44:00.977Z,1.30
2022-11-18T06:46:58.331Z,1.70
2022-11-18T06:49:43.953Z,1.60
2022-11-18T06:52:29.060Z,1.73
2022-11-18T06:55:14.198Z,3.27
2022-11-18T06:57:59.435Z,3.97
2022-11-18T07:00:44.912Z,5.30
2022-11-18T07:03:30.269Z,5.77
2022-11-18T07:06:18.361Z,4.83
2022-11-18T07:09:06.836Z,7.77
2022-11-18T07:11:52.242Z,6.73
2022-11-18T07:14:37.185Z,4.90
2022-11-18T07:17:22.757Z,4.63
2022-11-18T07:20:08.265Z,4.30
2022-11-18T07:22:53.901Z,3.67
2022-11-18T07:25:44.043Z,5.80
2022-11-18T07:28:31.111Z,3.53
2022-11-18T07:31:20.618Z,3.50
2022-11-18T07:34:06.364Z,7.50
2022-11-18T07:36:51.288Z,5.50
2022-11-18T07:39:36.683Z,4.43
2022-11-18T07:42:21.725Z,3.50
2022-11-18T07:45:07.518Z,5.07
2022-11-18T07:47:52.449Z,3.57
2022-11-18T07:50:37.606Z,3.23
2022-11-18T07:53:22.475Z,3.00
2022-11-18T07:56:08.267Z,2.57
2022-11-18T07:58:55.173Z,3.10
2022-11-18T08:01:40.331Z,2.83
2022-11-18T08:04:25.838Z,3.17
2022-11-18T08:07:10.712Z,2.80
2022-11-18T08:09:56.133Z,3.10
2022-11-18T08:12:41.262Z,2.77
2022-11-18T08:15:26.345Z,4.23
2022-11-18T08:18:13.845Z,2.57
2022-11-18T08:21:03.951Z,2.83
2022-11-18T08:23:54.599Z,2.83
2022-11-18T08:26:39.666Z,2.83
2022-11-18T08:29:25.703Z,2.67
2022-11-18T08:32:10.828Z,2.60
2022-11-18T08:34:56.020Z,2.87
2022-11-18T08:37:41.119Z,2.60
2022-11-18T08:40:26.853Z,2.63
2022-11-18T08:43:12.225Z,2.50
2022-11-18T08:45:57.233Z,4.70
2022-11-18T08:48:42.755Z,2.27
2022-11-18T08:51:28.514Z,2.30
2022-11-18T08:54:14.022Z,2.67
2022-11-18T08:56:59.451Z,1.90
2022-11-18T08:59:44.643Z,1.93
2022-11-18T09:02:29.632Z,2.27
2022-11-18T09:05:14.618Z,4.23
2022-11-18T09:07:59.827Z,2.10
2022-11-18T09:10:44.710Z,2.03
2022-11-18T09:16:35.743Z,2.40
2022-11-18T09:22:26.089Z,2.40
2022-11-18T09:25:11.306Z,2.53
2022-11-18T09:27:56.494Z,2.07
2022-11-18T09:30:41.963Z,1.93
2022-11-18T09:33:27.647Z,2.77
2022-11-18T09:36:14.091Z,3.87
2022-11-18T09:38:59.974Z,1.73
2022-11-18T09:42:23.751Z,3.00
2022-11-18T09:45:35.182Z,1.90
2022-11-18T09:48:45.683Z,2.10
2022-11-18T09:51:40.955Z,3.90
2022-11-18T09:54:30.600Z,2.33
2022-11-18T09:57:21.936Z,2.10
2022-11-18T10:00:18.163Z,2.10
2022-11-18T10:03:16.054Z,2.07
2022-11-18T10:06:27.504Z,2.80
2022-11-18T10:09:35.363Z,2.40
2022-11-18T10:12:29.557Z,2.43
2022-11-18T10:15:34.004Z,2.03
2022-11-18T10:18:58.373Z,1.90
2022-11-18T10:21:57.861Z,2.20
2022-11-18T10:24:45.911Z,4.47
2022-11-18T10:27:39.170Z,3.43
2022-11-18T10:30:26.493Z,2.87
2022-11-18T10:33:27.993Z,1.77
2022-11-18T10:36:27.982Z,2.00
2022-11-18T10:39:15.583Z,1.90
2022-11-18T10:42:05.823Z,2.33
2022-11-18T10:44:50.919Z,1.87
2022-11-18T10:47:35.832Z,1.90
2022-11-18T10:50:42.232Z,2.10
2022-11-18T10:53:36.948Z,2.40
2022-11-18T10:56:21.901Z,1.80
2022-11-18T10:59:30.679Z,2.50
2022-11-18T11:02:31.359Z,1.90
2022-11-18T11:05:21.279Z,2.73
2022-11-18T11:08:36.168Z,1.80
2022-11-18T11:11:35.461Z,2.27
2022-11-18T11:14:28.708Z,2.00
2022-11-18T11:17:31.212Z,2.60
2022-11-18T11:20:28.707Z,2.13
2022-11-18T11:23:20.427Z,1.83
2022-11-18T11:29:55.050Z,2.27
2022-11-18T11:33:17.486Z,1.87
2022-11-18T11:36:13.826Z,1.70
2022-11-18T11:39:25.542Z,2.43
2022-11-18T11:42:38.750Z,1.70
2022-11-18T11:45:31.167Z,2.30
2022-11-18T11:48:19.159Z,1.93
2022-11-18T11:51:29.366Z,1.80
2022-11-18T11:54:45.389Z,2.07
2022-11-18T11:58:10.163Z,1.80
2022-11-18T12:01:33.972Z,1.77
2022-11-18T12:04:37.508Z,2.10
2022-11-18T12:07:28.379Z,3.97
2022-11-18T12:10:31.651Z,2.33
2022-11-18T12:13:41.807Z,2.73
2022-11-18T12:17:00.984Z,2.47
2022-11-18T12:19:45.838Z,2.57
2022-11-18T12:23:08.462Z,5.27
2022-11-18T12:25:58.201Z,3.13
2022-11-18T12:28:45.212Z,2.50
2022-11-18T12:31:33.359Z,3.70
2022-11-18T12:34:41.634Z,2.87
2022-11-18T12:37:26.524Z,3.90
2022-11-18T12:40:31.640Z,2.97
2022-11-18T12:43:44.437Z,5.13
2022-11-18T12:46:44.262Z,2.63
2022-11-18T12:49:30.749Z,3.07
2022-11-18T12:52:31.074Z,8.23
2022-11-18T12:55:25.140Z,3.33
2022-11-18T12:58:25.644Z,4.53
2022-11-18T13:01:13.536Z,3.63
2022-11-18T13:04:16.757Z,58.13
2022-11-18T13:07:03.771Z,335.83
2022-11-18T13:09:50.018Z,104.73
2022-11-18T13:12:34.939Z,87.23
2022-11-18T13:15:38.755Z,72.27
2022-11-18T13:18:23.835Z,45.47
2022-11-18T13:21:27.364Z,43.70
2022-11-18T13:24:21.229Z,160.50
2022-11-18T13:27:13.197Z,165.73
2022-11-18T13:30:05.085Z,87.57
2022-11-18T13:32:51.614Z,50.00
2022-11-18T13:35:40.846Z,51.50
2022-11-18T13:38:28.466Z,45.23
2022-11-18T13:41:23.941Z,40.23
2022-11-18T13:44:19.747Z,41.73
2022-11-18T13:47:18.437Z,38.23
2022-11-18T13:50:34.772Z,34.40
2022-11-18T13:53:29.219Z,32.40
2022-11-18T13:56:24.021Z,33.30
2022-11-18T13:59:18.610Z,25.63
2022-11-18T14:02:12.803Z,26.20
2022-11-18T14:04:59.893Z,23.23
2022-11-18T14:07:56.528Z,25.17
2022-11-18T14:10:43.820Z,24.90
2022-11-18T14:13:31.723Z,26.27
2022-11-18T14:16:20.479Z,24.47
2022-11-18T14:19:06.043Z,19.50
2022-11-18T14:21:51.360Z,20.17
2022-11-18T14:24:36.636Z,21.67
2022-11-18T14:27:41.644Z,17.20
2022-11-18T14:30:27.238Z,20.23
2022-11-18T14:33:27.210Z,17.43
2022-11-18T14:36:17.851Z,21.43
2022-11-18T14:39:26.030Z,16.70
2022-11-18T14:42:13.037Z,18.43
2022-11-18T14:44:58.220Z,14.40
2022-11-18T14:47:43.465Z,14.63
2022-11-18T14:50:28.621Z,13.70
2022-11-18T14:53:13.819Z,12.20
2022-11-18T14:56:00.061Z,12.13
2022-11-18T14:58:45.319Z,14.53
2022-11-18T15:01:31.065Z,15.00
2022-11-18T15:04:21.007Z,13.87
2022-11-18T15:07:06.639Z,12.93
2022-11-18T15:09:51.736Z,11.87
2022-11-18T15:12:36.935Z,12.03
2022-11-18T15:15:22.105Z,14.20
2022-11-18T15:18:08.500Z,14.43
2022-11-18T15:20:53.794Z,12.13
2022-11-18T15:23:38.764Z,13.63
2022-11-18T15:26:27.087Z,12.17
2022-11-18T15:29:22.590Z,12.50
2022-11-18T15:32:08.002Z,16.03
2022-11-18T15:34:53.131Z,13.13
2022-11-18T15:37:38.375Z,14.53
2022-11-18T15:40:24.468Z,15.50
2022-11-18T15:43:09.528Z,16.60
2022-11-18T15:45:58.303Z,17.30
2022-11-18T15:48:43.412Z,15.23
2022-11-18T15:51:29.954Z,16.47
2022-11-18T15:54:15.084Z,17.63
2022-11-18T15:57:00.275Z,16.70
2022-11-18T15:59:45.163Z,19.20
2022-11-18T16:02:30.499Z,18.87
2022-11-18T16:05:15.962Z,18.80
2022-11-18T16:08:01.160Z,18.83
2022-11-18T16:11:05.056Z,19.73
2022-11-18T16:13:50.209Z,19.57
2022-11-18T16:16:36.678Z,20.30
2022-11-18T16:19:24.595Z,19.93
2022-11-18T16:22:09.642Z,20.80
2022-11-18T16:24:55.326Z,20.63
2022-11-18T16:27:40.279Z,21.77
2022-11-18T16:30:43.822Z,22.47
2022-11-18T16:33:29.022Z,23.03
2022-11-18T16:36:13.937Z,23.23
2022-11-18T16:39:04.227Z,23.77
2022-11-18T16:41:49.620Z,23.67
2022-11-18T16:44:35.197Z,24.63
2022-11-18T16:47:20.579Z,25.33
2022-11-18T16:50:06.186Z,24.20
2022-11-18T16:52:51.413Z,23.33
2022-11-18T16:55:36.467Z,24.43
2022-11-18T16:58:21.364Z,24.13
2022-11-18T17:01:19.833Z,22.23
2022-11-18T17:04:07.268Z,22.93
2022-11-18T17:06:53.329Z,22.57
2022-11-18T17:09:38.960Z,22.77
2022-11-18T17:12:24.125Z,22.77
2022-11-18T17:15:09.416Z,22.53
2022-11-18T17:17:54.635Z,21.33
2022-11-18T17:20:39.619Z,22.10
2022-11-18T17:23:24.504Z,22.57
2022-11-18T17:26:09.567Z,19.20
2022-11-18T17:28:55.927Z,19.20
2022-11-18T17:31:41.948Z,21.07
2022-11-18T17:34:26.847Z,20.37
2022-11-18T17:37:11.663Z,19.67
2022-11-18T17:39:56.658Z,19.30
2022-11-18T17:42:41.551Z,19.13
2022-11-18T17:45:26.478Z,18.53
2022-11-18T17:48:11.396Z,18.30
2022-11-18T17:51:04.587Z,18.40
2022-11-18T17:53:50.619Z,19.10
2022-11-18T17:56:35.980Z,18.27
2022-11-18T17:59:22.427Z,18.47
2022-11-18T18:02:07.441Z,16.97
2022-11-18T18:04:52.588Z,16.60
2022-11-18T18:07:37.482Z,17.00
2022-11-18T18:10:23.383Z,16.87
2022-11-18T18:13:27.216Z,16.43
2022-11-18T18:16:12.566Z,15.97
2022-11-18T18:18:59.127Z,16.07
2022-11-18T18:21:44.907Z,16.20
2022-11-18T18:24:29.832Z,16.37
2022-11-18T18:27:14.687Z,15.77
2022-11-18T18:29:59.667Z,16.77
2022-11-18T18:32:49.497Z,15.40
2022-11-18T18:35:41.561Z,15.43
2022-11-18T18:38:27.091Z,15.60
2022-11-18T18:41:21.767Z,15.17
2022-11-18T18:44:07.190Z,14.67
2022-11-18T18:46:52.415Z,14.93
2022-11-18T18:49:37.279Z,14.07
2022-11-18T18:52:22.320Z,14.30
2022-11-18T18:55:07.628Z,13.90
2022-11-18T18:57:53.096Z,13.37
2022-11-18T19:00:38.246Z,13.93
2022-11-18T19:03:23.456Z,14.90
2022-11-18T19:09:43.367Z,13.33
2022-11-18T19:12:43.336Z,14.40
2022-11-18T19:15:28.323Z,13.80
2022-11-18T19:18:13.697Z,13.30
2022-11-18T19:20:58.989Z,13.47
2022-11-18T19:23:43.880Z,13.27
2022-11-18T19:26:28.897Z,13.17
2022-11-18T19:29:14.177Z,13.30
2022-11-18T19:31:59.527Z,11.93
2022-11-18T19:34:44.592Z,16.00
2022-11-18T19:37:33.911Z,11.97
2022-11-18T19:40:19.093Z,9.73
2022-11-18T19:43:03.982Z,10.60
2022-11-18T19:45:52.268Z,10.27
2022-11-18T19:48:37.507Z,9.97
2022-11-18T19:51:23.876Z,10.00
2022-11-18T19:54:08.945Z,9.23
2022-11-18T19:56:53.997Z,9.37
2022-11-18T19:59:39.615Z,10.23
2022-11-18T20:02:24.899Z,8.77
2022-11-18T20:05:28.376Z,10.23
2022-11-18T20:08:13.383Z,8.60
2022-11-18T20:11:09.031Z,9.00
2022-11-18T20:13:54.672Z,8.17
2022-11-18T20:16:40.660Z,8.67
2022-11-18T20:19:25.832Z,7.83
2022-11-18T20:22:11.210Z,8.30
2022-11-18T20:24:56.364Z,8.17
2022-11-18T20:27:41.800Z,8.10
2022-11-18T20:30:26.955Z,7.27
2022-11-18T20:33:12.349Z,7.97
2022-11-18T20:35:57.505Z,7.93
2022-11-18T20:38:43.516Z,7.70
2022-11-18T20:41:32.210Z,8.07
2022-11-18T20:44:17.188Z,7.90
2022-11-18T20:47:02.034Z,7.47
2022-11-18T20:49:47.612Z,7.40
2022-11-18T20:52:35.710Z,7.70
2022-11-18T20:55:21.591Z,6.87
2022-11-18T20:58:06.860Z,7.13
2022-11-18T21:00:52.111Z,7.23
2022-11-18T21:03:37.661Z,6.87
2022-11-18T21:06:24.861Z,6.80
2022-11-18T21:09:10.269Z,6.73
2022-11-18T21:11:55.759Z,7.33
2022-11-18T21:14:40.703Z,6.97
2022-11-18T21:17:25.771Z,6.93
2022-11-18T21:20:30.723Z,6.80
2022-11-18T21:23:15.540Z,7.00
2022-11-18T21:26:00.704Z,7.10
2022-11-18T21:28:47.352Z,7.07
2022-11-18T21:31:33.062Z,6.63
2022-11-18T21:34:18.483Z,6.57
2022-11-18T21:37:05.214Z,6.90
2022-11-18T21:39:50.179Z,6.57
2022-11-18T21:42:35.158Z,6.57
2022-11-18T21:45:20.512Z,6.87
2022-11-18T21:48:05.939Z,7.23
2022-11-18T21:50:50.984Z,6.63
2022-11-18T21:53:36.813Z,6.93
2022-11-18T21:56:25.115Z,7.13
2022-11-18T21:59:10.092Z,6.87
2022-11-18T22:01:55.031Z,6.50
2022-11-18T22:04:55.919Z,7.03
2022-11-18T22:07:41.170Z,7.07
2022-11-18T22:10:26.323Z,5.90
2022-11-18T22:13:11.209Z,6.00
2022-11-18T22:16:05.731Z,6.47
2022-11-18T22:18:58.098Z,6.30
2022-11-18T22:21:46.348Z,6.50
2022-11-18T22:24:31.765Z,5.97
2022-11-18T22:27:16.594Z,6.87
2022-11-18T22:30:01.509Z,6.03
2022-11-18T22:32:46.701Z,6.57
2022-11-18T22:35:31.842Z,5.80
2022-11-18T22:38:16.726Z,7.47
2022-11-18T22:41:32.826Z,6.77
2022-11-18T22:44:18.117Z,7.23
2022-11-18T22:47:03.430Z,6.00
2022-11-18T22:49:52.098Z,6.87
2022-11-18T22:52:41.148Z,7.57
2022-11-18T22:55:26.284Z,7.07
2022-11-18T22:58:11.434Z,7.33
2022-11-18T23:01:00.875Z,7.87
2022-11-18T23:03:46.933Z,7.00
2022-11-18T23:06:32.363Z,7.50
2022-11-18T23:09:17.935Z,7.30
2022-11-18T23:12:21.526Z,7.60
2022-11-18T23:15:07.200Z,7.17
2022-11-18T23:17:51.999Z,7.03
2022-11-18T23:20:36.901Z,7.10
2022-11-18T23:23:22.529Z,7.63
2022-11-18T23:26:10.087Z,7.30
2022-11-18T23:28:55.803Z,7.43
2022-11-18T23:31:42.895Z,7.83
2022-11-18T23:34:29.093Z,8.37
2022-11-18T23:37:14.238Z,7.67
2022-11-18T23:39:59.031Z,7.60
2022-11-18T23:42:44.042Z,7.50
2022-11-18T23:45:29.356Z,6.97
2022-11-18T23:48:14.291Z,7.70
2022-11-18T23:51:03.037Z,7.23
2022-11-18T23:53:52.749Z,7.00
2022-11-18T23:56:38.430Z,6.90
2022-11-18T23:59:23.902Z,7.00
